sensor_id;sensor_type;location;lat;lon;timestamp;P1;durP1;ratioP1;P2;durP2;ratioP2
56242;SDS011;42155;53.096;23.226;2023-04-09T00:00:41;13.93;;;7.43;;
56242;SDS011;42155;53.096;23.226;2023-04-09T00:02:41;18.77;;;8.68;;
56242;SDS011;42155;53.096;23.226;2023-04-09T00:04:42;19.85;;;9.10;;
56242;SDS011;42155;53.096;23.226;2023-04-09T00:06:42;22.73;;;10.07;;
56242;SDS011;42155;53.096;23.226;2023-04-09T00:08:43;21.60;;;10.40;;
56242;SDS011;42155;53.096;23.226;2023-04-09T00:10:43;23.50;;;10.43;;
56242;SDS011;42155;53.096;23.226;2023-04-09T00:12:43;22.10;;;10.63;;
56242;SDS011;42155;53.096;23.226;2023-04-09T00:14:44;26.17;;;11.00;;
56242;SDS011;42155;53.096;23.226;2023-04-09T00:16:44;26.27;;;11.73;;
56242;SDS011;42155;53.096;23.226;2023-04-09T00:18:44;24.73;;;10.95;;
56242;SDS011;42155;53.096;23.226;2023-04-09T00:20:44;25.63;;;12.18;;
56242;SDS011;42155;53.096;23.226;2023-04-09T00:22:45;23.38;;;11.25;;
56242;SDS011;42155;53.096;23.226;2023-04-09T00:24:45;27.50;;;12.13;;
56242;SDS011;42155;53.096;23.226;2023-04-09T00:26:45;27.95;;;13.07;;
56242;SDS011;42155;53.096;23.226;2023-04-09T00:28:46;29.02;;;13.50;;
56242;SDS011;42155;53.096;23.226;2023-04-09T00:30:46;31.23;;;13.45;;
56242;SDS011;42155;53.096;23.226;2023-04-09T00:32:47;32.78;;;13.30;;
56242;SDS011;42155;53.096;23.226;2023-04-09T00:34:47;30.30;;;12.43;;
56242;SDS011;42155;53.096;23.226;2023-04-09T00:36:48;26.20;;;11.45;;
56242;SDS011;42155;53.096;23.226;2023-04-09T00:38:51;18.17;;;9.55;;
56242;SDS011;42155;53.096;23.226;2023-04-09T00:40:51;22.15;;;10.75;;
56242;SDS011;42155;53.096;23.226;2023-04-09T00:42:51;33.40;;;13.13;;
56242;SDS011;42155;53.096;23.226;2023-04-09T00:44:52;25.63;;;13.20;;
56242;SDS011;42155;53.096;23.226;2023-04-09T00:46:52;27.08;;;13.55;;
56242;SDS011;42155;53.096;23.226;2023-04-09T00:48:53;39.08;;;19.80;;
56242;SDS011;42155;53.096;23.226;2023-04-09T00:50:54;32.55;;;15.77;;
56242;SDS011;42155;53.096;23.226;2023-04-09T00:52:54;42.33;;;19.65;;
56242;SDS011;42155;53.096;23.226;2023-04-09T00:54:55;37.10;;;18.92;;
56242;SDS011;42155;53.096;23.226;2023-04-09T00:56:58;40.53;;;18.88;;
56242;SDS011;42155;53.096;23.226;2023-04-09T00:58:58;36.90;;;19.02;;
56242;SDS011;42155;53.096;23.226;2023-04-09T01:00:59;40.83;;;19.38;;
56242;SDS011;42155;53.096;23.226;2023-04-09T01:02:59;39.75;;;19.70;;
56242;SDS011;42155;53.096;23.226;2023-04-09T01:05:01;40.97;;;18.63;;
56242;SDS011;42155;53.096;23.226;2023-04-09T01:07:14;26.83;;;15.07;;
56242;SDS011;42155;53.096;23.226;2023-04-09T01:09:38;28.58;;;12.20;;
56242;SDS011;42155;53.096;23.226;2023-04-09T01:11:44;28.35;;;13.50;;
56242;SDS011;42155;53.096;23.226;2023-04-09T01:13:56;27.52;;;13.57;;
56242;SDS011;42155;53.096;23.226;2023-04-09T01:15:59;26.27;;;12.55;;
56242;SDS011;42155;53.096;23.226;2023-04-09T01:18:12;25.15;;;12.15;;
56242;SDS011;42155;53.096;23.226;2023-04-09T01:20:28;22.70;;;11.10;;
56242;SDS011;42155;53.096;23.226;2023-04-09T01:27:18;23.45;;;10.57;;
56242;SDS011;42155;53.096;23.226;2023-04-09T01:29:19;23.00;;;10.18;;
56242;SDS011;42155;53.096;23.226;2023-04-09T01:31:28;23.27;;;10.95;;
56242;SDS011;42155;53.096;23.226;2023-04-09T01:33:31;26.30;;;11.88;;
56242;SDS011;42155;53.096;23.226;2023-04-09T01:35:32;27.60;;;12.82;;
56242;SDS011;42155;53.096;23.226;2023-04-09T01:37:33;25.55;;;11.68;;
56242;SDS011;42155;53.096;23.226;2023-04-09T01:39:35;22.98;;;12.32;;
56242;SDS011;42155;53.096;23.226;2023-04-09T01:41:36;26.58;;;14.07;;
56242;SDS011;42155;53.096;23.226;2023-04-09T01:43:38;25.90;;;11.63;;
56242;SDS011;42155;53.096;23.226;2023-04-09T01:45:40;22.65;;;11.45;;
56242;SDS011;42155;53.096;23.226;2023-04-09T01:47:42;16.83;;;9.60;;
56242;SDS011;42155;53.096;23.226;2023-04-09T01:49:43;21.30;;;10.73;;
56242;SDS011;42155;53.096;23.226;2023-04-09T01:51:44;22.30;;;11.70;;
56242;SDS011;42155;53.096;23.226;2023-04-09T01:53:47;21.25;;;10.70;;
56242;SDS011;42155;53.096;23.226;2023-04-09T01:55:48;20.55;;;10.45;;
56242;SDS011;42155;53.096;23.226;2023-04-09T01:57:48;17.23;;;8.57;;
56242;SDS011;42155;53.096;23.226;2023-04-09T01:59:48;20.85;;;10.20;;
56242;SDS011;42155;53.096;23.226;2023-04-09T02:01:52;18.75;;;9.02;;
56242;SDS011;42155;53.096;23.226;2023-04-09T02:03:59;20.05;;;10.13;;
56242;SDS011;42155;53.096;23.226;2023-04-09T02:08:06;25.80;;;11.65;;
56242;SDS011;42155;53.096;23.226;2023-04-09T02:10:12;18.67;;;9.90;;
56242;SDS011;42155;53.096;23.226;2023-04-09T02:12:13;20.92;;;9.73;;
56242;SDS011;42155;53.096;23.226;2023-04-09T02:14:16;17.83;;;10.05;;
56242;SDS011;42155;53.096;23.226;2023-04-09T02:16:19;23.13;;;10.65;;
56242;SDS011;42155;53.096;23.226;2023-04-09T02:18:24;19.20;;;9.23;;
56242;SDS011;42155;53.096;23.226;2023-04-09T02:20:25;17.38;;;9.18;;
56242;SDS011;42155;53.096;23.226;2023-04-09T02:22:25;17.17;;;9.32;;
56242;SDS011;42155;53.096;23.226;2023-04-09T02:24:26;15.95;;;8.45;;
56242;SDS011;42155;53.096;23.226;2023-04-09T02:26:26;16.60;;;9.27;;
56242;SDS011;42155;53.096;23.226;2023-04-09T02:28:26;16.17;;;9.73;;
56242;SDS011;42155;53.096;23.226;2023-04-09T02:30:27;14.65;;;8.02;;
56242;SDS011;42155;53.096;23.226;2023-04-09T02:32:27;19.17;;;7.40;;
56242;SDS011;42155;53.096;23.226;2023-04-09T02:34:27;15.32;;;8.15;;
56242;SDS011;42155;53.096;23.226;2023-04-09T02:36:28;14.23;;;8.05;;
56242;SDS011;42155;53.096;23.226;2023-04-09T02:38:28;18.25;;;8.70;;
56242;SDS011;42155;53.096;23.226;2023-04-09T02:40:28;16.98;;;8.02;;
56242;SDS011;42155;53.096;23.226;2023-04-09T02:42:29;15.98;;;8.57;;
56242;SDS011;42155;53.096;23.226;2023-04-09T02:44:29;16.00;;;7.68;;
56242;SDS011;42155;53.096;23.226;2023-04-09T02:46:29;16.88;;;8.57;;
56242;SDS011;42155;53.096;23.226;2023-04-09T02:48:30;16.45;;;7.90;;
56242;SDS011;42155;53.096;23.226;2023-04-09T02:50:30;19.20;;;9.35;;
56242;SDS011;42155;53.096;23.226;2023-04-09T02:52:30;16.70;;;8.48;;
56242;SDS011;42155;53.096;23.226;2023-04-09T02:54:31;19.02;;;8.95;;
56242;SDS011;42155;53.096;23.226;2023-04-09T02:56:31;14.80;;;8.15;;
56242;SDS011;42155;53.096;23.226;2023-04-09T02:58:31;20.92;;;9.15;;
56242;SDS011;42155;53.096;23.226;2023-04-09T03:00:32;15.57;;;8.43;;
56242;SDS011;42155;53.096;23.226;2023-04-09T03:02:32;15.77;;;7.95;;
56242;SDS011;42155;53.096;23.226;2023-04-09T03:04:32;18.75;;;9.27;;
56242;SDS011;42155;53.096;23.226;2023-04-09T03:06:33;17.00;;;8.80;;
56242;SDS011;42155;53.096;23.226;2023-04-09T03:08:33;17.23;;;9.60;;
56242;SDS011;42155;53.096;23.226;2023-04-09T03:10:33;16.35;;;9.43;;
56242;SDS011;42155;53.096;23.226;2023-04-09T03:12:34;16.67;;;9.10;;
56242;SDS011;42155;53.096;23.226;2023-04-09T03:14:34;16.05;;;9.40;;
56242;SDS011;42155;53.096;23.226;2023-04-09T03:16:35;19.25;;;9.25;;
56242;SDS011;42155;53.096;23.226;2023-04-09T03:18:35;19.55;;;9.82;;
56242;SDS011;42155;53.096;23.226;2023-04-09T03:20:36;18.55;;;9.60;;
56242;SDS011;42155;53.096;23.226;2023-04-09T03:22:38;17.85;;;10.10;;
56242;SDS011;42155;53.096;23.226;2023-04-09T03:24:38;22.50;;;10.25;;
56242;SDS011;42155;53.096;23.226;2023-04-09T03:26:39;20.08;;;10.63;;
56242;SDS011;42155;53.096;23.226;2023-04-09T03:28:39;24.00;;;11.15;;
56242;SDS011;42155;53.096;23.226;2023-04-09T03:30:39;19.30;;;11.10;;
56242;SDS011;42155;53.096;23.226;2023-04-09T03:32:40;20.33;;;11.85;;
56242;SDS011;42155;53.096;23.226;2023-04-09T03:34:40;21.20;;;12.38;;
56242;SDS011;42155;53.096;23.226;2023-04-09T03:36:40;21.20;;;11.38;;
56242;SDS011;42155;53.096;23.226;2023-04-09T03:38:41;21.30;;;11.45;;
56242;SDS011;42155;53.096;23.226;2023-04-09T03:40:41;21.75;;;11.00;;
56242;SDS011;42155;53.096;23.226;2023-04-09T03:42:42;22.40;;;11.20;;
56242;SDS011;42155;53.096;23.226;2023-04-09T03:44:42;18.67;;;10.07;;
56242;SDS011;42155;53.096;23.226;2023-04-09T03:46:43;20.38;;;9.52;;
56242;SDS011;42155;53.096;23.226;2023-04-09T03:48:43;18.10;;;9.60;;
56242;SDS011;42155;53.096;23.226;2023-04-09T03:50:44;16.73;;;9.10;;
56242;SDS011;42155;53.096;23.226;2023-04-09T03:52:44;16.10;;;8.70;;
56242;SDS011;42155;53.096;23.226;2023-04-09T03:54:44;16.60;;;8.75;;
56242;SDS011;42155;53.096;23.226;2023-04-09T03:56:45;18.80;;;9.45;;
56242;SDS011;42155;53.096;23.226;2023-04-09T03:58:45;17.25;;;9.27;;
56242;SDS011;42155;53.096;23.226;2023-04-09T04:00:45;23.95;;;10.23;;
56242;SDS011;42155;53.096;23.226;2023-04-09T04:02:46;17.55;;;9.45;;
56242;SDS011;42155;53.096;23.226;2023-04-09T04:04:46;21.73;;;9.90;;
56242;SDS011;42155;53.096;23.226;2023-04-09T04:06:46;19.75;;;10.23;;
56242;SDS011;42155;53.096;23.226;2023-04-09T04:08:47;18.42;;;10.25;;
56242;SDS011;42155;53.096;23.226;2023-04-09T04:10:47;17.70;;;9.57;;
56242;SDS011;42155;53.096;23.226;2023-04-09T04:12:47;21.40;;;10.13;;
56242;SDS011;42155;53.096;23.226;2023-04-09T04:14:48;23.45;;;10.27;;
56242;SDS011;42155;53.096;23.226;2023-04-09T04:16:48;31.60;;;14.02;;
56242;SDS011;42155;53.096;23.226;2023-04-09T04:18:48;39.72;;;16.52;;
56242;SDS011;42155;53.096;23.226;2023-04-09T04:20:49;38.88;;;17.17;;
56242;SDS011;42155;53.096;23.226;2023-04-09T04:22:49;48.50;;;20.02;;
56242;SDS011;42155;53.096;23.226;2023-04-09T04:24:49;53.80;;;21.67;;
56242;SDS011;42155;53.096;23.226;2023-04-09T04:26:50;51.65;;;23.55;;
56242;SDS011;42155;53.096;23.226;2023-04-09T04:28:50;66.50;;;26.55;;
56242;SDS011;42155;53.096;23.226;2023-04-09T04:30:50;58.97;;;24.75;;
56242;SDS011;42155;53.096;23.226;2023-04-09T04:32:51;56.90;;;24.40;;
56242;SDS011;42155;53.096;23.226;2023-04-09T04:34:51;55.90;;;22.83;;
56242;SDS011;42155;53.096;23.226;2023-04-09T04:36:52;51.15;;;21.83;;
56242;SDS011;42155;53.096;23.226;2023-04-09T04:38:52;46.00;;;18.88;;
56242;SDS011;42155;53.096;23.226;2023-04-09T04:40:52;44.30;;;18.40;;
56242;SDS011;42155;53.096;23.226;2023-04-09T04:42:53;41.42;;;17.05;;
56242;SDS011;42155;53.096;23.226;2023-04-09T04:44:53;37.47;;;15.75;;
56242;SDS011;42155;53.096;23.226;2023-04-09T04:46:53;42.53;;;17.00;;
56242;SDS011;42155;53.096;23.226;2023-04-09T04:48:54;34.30;;;15.30;;
56242;SDS011;42155;53.096;23.226;2023-04-09T04:50:55;43.15;;;16.13;;
56242;SDS011;42155;53.096;23.226;2023-04-09T04:52:56;35.33;;;16.02;;
56242;SDS011;42155;53.096;23.226;2023-04-09T04:54:57;40.90;;;17.58;;
56242;SDS011;42155;53.096;23.226;2023-04-09T04:56:57;36.42;;;16.67;;
56242;SDS011;42155;53.096;23.226;2023-04-09T04:58:59;38.15;;;16.83;;
56242;SDS011;42155;53.096;23.226;2023-04-09T05:00:59;29.85;;;14.20;;
56242;SDS011;42155;53.096;23.226;2023-04-09T05:02:59;29.00;;;13.57;;
56242;SDS011;42155;53.096;23.226;2023-04-09T05:05:00;27.85;;;13.60;;
56242;SDS011;42155;53.096;23.226;2023-04-09T05:07:00;31.38;;;17.60;;
56242;SDS011;42155;53.096;23.226;2023-04-09T05:09:00;34.40;;;18.50;;
56242;SDS011;42155;53.096;23.226;2023-04-09T05:11:01;29.55;;;15.80;;
56242;SDS011;42155;53.096;23.226;2023-04-09T05:13:01;29.73;;;16.42;;
56242;SDS011;42155;53.096;23.226;2023-04-09T05:15:01;30.92;;;15.95;;
56242;SDS011;42155;53.096;23.226;2023-04-09T05:17:03;22.65;;;13.55;;
56242;SDS011;42155;53.096;23.226;2023-04-09T05:19:04;27.65;;;13.82;;
56242;SDS011;42155;53.096;23.226;2023-04-09T05:21:04;30.17;;;14.20;;
56242;SDS011;42155;53.096;23.226;2023-04-09T05:23:04;24.90;;;12.18;;
56242;SDS011;42155;53.096;23.226;2023-04-09T05:25:05;23.27;;;11.90;;
56242;SDS011;42155;53.096;23.226;2023-04-09T05:27:08;25.77;;;11.52;;
56242;SDS011;42155;53.096;23.226;2023-04-09T05:29:08;20.75;;;10.18;;
56242;SDS011;42155;53.096;23.226;2023-04-09T05:31:09;22.75;;;10.15;;
56242;SDS011;42155;53.096;23.226;2023-04-09T05:33:09;18.60;;;10.18;;
56242;SDS011;42155;53.096;23.226;2023-04-09T05:35:10;17.85;;;9.80;;
56242;SDS011;42155;53.096;23.226;2023-04-09T05:37:10;20.33;;;10.25;;
56242;SDS011;42155;53.096;23.226;2023-04-09T05:39:10;17.30;;;9.63;;
56242;SDS011;42155;53.096;23.226;2023-04-09T05:41:11;16.20;;;9.48;;
56242;SDS011;42155;53.096;23.226;2023-04-09T05:43:12;21.52;;;10.15;;
56242;SDS011;42155;53.096;23.226;2023-04-09T05:45:12;15.55;;;9.27;;
56242;SDS011;42155;53.096;23.226;2023-04-09T05:47:13;15.95;;;9.38;;
56242;SDS011;42155;53.096;23.226;2023-04-09T05:49:13;14.00;;;9.05;;
56242;SDS011;42155;53.096;23.226;2023-04-09T05:51:13;16.00;;;8.93;;
56242;SDS011;42155;53.096;23.226;2023-04-09T05:53:14;16.17;;;9.18;;
56242;SDS011;42155;53.096;23.226;2023-04-09T05:55:14;15.43;;;9.18;;
56242;SDS011;42155;53.096;23.226;2023-04-09T05:57:14;17.60;;;9.73;;
56242;SDS011;42155;53.096;23.226;2023-04-09T05:59:15;18.08;;;9.50;;
56242;SDS011;42155;53.096;23.226;2023-04-09T06:01:15;16.75;;;9.18;;
56242;SDS011;42155;53.096;23.226;2023-04-09T06:03:16;15.35;;;8.90;;
56242;SDS011;42155;53.096;23.226;2023-04-09T06:05:16;16.60;;;9.07;;
56242;SDS011;42155;53.096;23.226;2023-04-09T06:07:16;14.18;;;8.02;;
56242;SDS011;42155;53.096;23.226;2023-04-09T06:09:17;13.75;;;8.82;;
56242;SDS011;42155;53.096;23.226;2023-04-09T06:11:17;16.45;;;9.05;;
56242;SDS011;42155;53.096;23.226;2023-04-09T06:13:18;17.27;;;9.32;;
56242;SDS011;42155;53.096;23.226;2023-04-09T06:15:29;16.13;;;9.15;;
56242;SDS011;42155;53.096;23.226;2023-04-09T06:17:30;15.32;;;9.32;;
56242;SDS011;42155;53.096;23.226;2023-04-09T06:19:30;17.58;;;9.20;;
56242;SDS011;42155;53.096;23.226;2023-04-09T06:21:31;15.35;;;8.02;;
56242;SDS011;42155;53.096;23.226;2023-04-09T06:23:32;12.38;;;8.13;;
56242;SDS011;42155;53.096;23.226;2023-04-09T06:25:34;13.18;;;8.82;;
56242;SDS011;42155;53.096;23.226;2023-04-09T06:27:35;17.08;;;8.23;;
56242;SDS011;42155;53.096;23.226;2023-04-09T06:29:35;15.65;;;8.60;;
56242;SDS011;42155;53.096;23.226;2023-04-09T06:31:35;16.33;;;9.52;;
56242;SDS011;42155;53.096;23.226;2023-04-09T06:33:35;17.95;;;8.98;;
56242;SDS011;42155;53.096;23.226;2023-04-09T06:35:36;13.80;;;8.52;;
56242;SDS011;42155;53.096;23.226;2023-04-09T06:37:36;16.88;;;9.00;;
56242;SDS011;42155;53.096;23.226;2023-04-09T06:39:36;14.70;;;8.98;;
56242;SDS011;42155;53.096;23.226;2023-04-09T06:41:37;14.02;;;8.98;;
56242;SDS011;42155;53.096;23.226;2023-04-09T06:43:37;15.65;;;9.65;;
56242;SDS011;42155;53.096;23.226;2023-04-09T06:45:37;15.68;;;7.82;;
56242;SDS011;42155;53.096;23.226;2023-04-09T06:47:38;13.55;;;8.55;;
56242;SDS011;42155;53.096;23.226;2023-04-09T06:49:38;13.43;;;7.78;;
56242;SDS011;42155;53.096;23.226;2023-04-09T06:51:38;16.85;;;9.50;;
56242;SDS011;42155;53.096;23.226;2023-04-09T06:53:39;15.27;;;8.98;;
56242;SDS011;42155;53.096;23.226;2023-04-09T06:55:39;19.95;;;9.52;;
56242;SDS011;42155;53.096;23.226;2023-04-09T06:57:40;16.40;;;9.48;;
56242;SDS011;42155;53.096;23.226;2023-04-09T06:59:40;20.30;;;9.70;;
56242;SDS011;42155;53.096;23.226;2023-04-09T07:01:40;16.65;;;9.98;;
56242;SDS011;42155;53.096;23.226;2023-04-09T07:03:41;16.85;;;8.77;;
56242;SDS011;42155;53.096;23.226;2023-04-09T07:05:42;15.95;;;9.13;;
56242;SDS011;42155;53.096;23.226;2023-04-09T07:07:42;20.60;;;10.27;;
56242;SDS011;42155;53.096;23.226;2023-04-09T07:09:43;17.95;;;9.68;;
56242;SDS011;42155;53.096;23.226;2023-04-09T07:11:43;15.88;;;9.35;;
56242;SDS011;42155;53.096;23.226;2023-04-09T07:13:43;18.10;;;9.48;;
56242;SDS011;42155;53.096;23.226;2023-04-09T07:15:44;16.90;;;9.88;;
56242;SDS011;42155;53.096;23.226;2023-04-09T07:17:44;17.17;;;10.05;;
56242;SDS011;42155;53.096;23.226;2023-04-09T07:19:44;19.45;;;9.85;;
56242;SDS011;42155;53.096;23.226;2023-04-09T07:21:45;21.13;;;10.77;;
56242;SDS011;42155;53.096;23.226;2023-04-09T07:23:45;25.30;;;10.23;;
56242;SDS011;42155;53.096;23.226;2023-04-09T07:25:45;17.33;;;10.00;;
56242;SDS011;42155;53.096;23.226;2023-04-09T07:27:46;19.55;;;10.13;;
56242;SDS011;42155;53.096;23.226;2023-04-09T07:29:46;15.35;;;9.77;;
56242;SDS011;42155;53.096;23.226;2023-04-09T07:31:46;15.18;;;9.18;;
56242;SDS011;42155;53.096;23.226;2023-04-09T07:33:47;21.52;;;11.32;;
56242;SDS011;42155;53.096;23.226;2023-04-09T07:35:47;20.08;;;11.15;;
56242;SDS011;42155;53.096;23.226;2023-04-09T07:37:47;19.92;;;10.25;;
56242;SDS011;42155;53.096;23.226;2023-04-09T07:39:48;22.50;;;11.20;;
56242;SDS011;42155;53.096;23.226;2023-04-09T07:41:49;18.83;;;11.13;;
56242;SDS011;42155;53.096;23.226;2023-04-09T07:43:49;22.52;;;11.23;;
56242;SDS011;42155;53.096;23.226;2023-04-09T07:45:49;22.08;;;10.75;;
56242;SDS011;42155;53.096;23.226;2023-04-09T07:47:50;16.02;;;9.43;;
56242;SDS011;42155;53.096;23.226;2023-04-09T07:49:50;18.55;;;9.60;;
56242;SDS011;42155;53.096;23.226;2023-04-09T07:51:50;15.82;;;9.63;;
56242;SDS011;42155;53.096;23.226;2023-04-09T07:53:51;18.65;;;10.32;;
56242;SDS011;42155;53.096;23.226;2023-04-09T07:55:51;19.55;;;9.40;;
56242;SDS011;42155;53.096;23.226;2023-04-09T07:57:51;17.65;;;8.85;;
56242;SDS011;42155;53.096;23.226;2023-04-09T07:59:52;16.60;;;9.88;;
56242;SDS011;42155;53.096;23.226;2023-04-09T08:01:52;14.13;;;9.07;;
56242;SDS011;42155;53.096;23.226;2023-04-09T08:03:53;14.73;;;8.50;;
56242;SDS011;42155;53.096;23.226;2023-04-09T08:05:53;16.15;;;8.50;;
56242;SDS011;42155;53.096;23.226;2023-04-09T08:07:53;17.92;;;9.02;;
56242;SDS011;42155;53.096;23.226;2023-04-09T08:09:53;13.27;;;8.43;;
56242;SDS011;42155;53.096;23.226;2023-04-09T08:11:54;12.98;;;7.47;;
56242;SDS011;42155;53.096;23.226;2023-04-09T08:13:54;14.63;;;7.90;;
56242;SDS011;42155;53.096;23.226;2023-04-09T08:15:55;12.50;;;7.70;;
56242;SDS011;42155;53.096;23.226;2023-04-09T08:17:55;14.05;;;7.57;;
56242;SDS011;42155;53.096;23.226;2023-04-09T08:19:56;14.27;;;7.20;;
56242;SDS011;42155;53.096;23.226;2023-04-09T08:21:56;12.60;;;7.43;;
56242;SDS011;42155;53.096;23.226;2023-04-09T08:23:56;13.00;;;7.50;;
56242;SDS011;42155;53.096;23.226;2023-04-09T08:25:56;14.05;;;7.90;;
56242;SDS011;42155;53.096;23.226;2023-04-09T08:27:57;12.13;;;7.47;;
56242;SDS011;42155;53.096;23.226;2023-04-09T08:29:57;13.10;;;7.00;;
56242;SDS011;42155;53.096;23.226;2023-04-09T08:31:58;10.80;;;7.00;;
56242;SDS011;42155;53.096;23.226;2023-04-09T08:33:58;12.60;;;6.47;;
56242;SDS011;42155;53.096;23.226;2023-04-09T08:35:59;11.77;;;5.72;;
56242;SDS011;42155;53.096;23.226;2023-04-09T08:37:59;16.90;;;6.57;;
56242;SDS011;42155;53.096;23.226;2023-04-09T08:39:59;12.07;;;6.60;;
56242;SDS011;42155;53.096;23.226;2023-04-09T08:42:00;11.32;;;6.45;;
56242;SDS011;42155;53.096;23.226;2023-04-09T08:44:00;11.23;;;5.80;;
56242;SDS011;42155;53.096;23.226;2023-04-09T08:46:01;13.85;;;5.40;;
56242;SDS011;42155;53.096;23.226;2023-04-09T08:48:01;14.38;;;7.70;;
56242;SDS011;42155;53.096;23.226;2023-04-09T08:50:03;13.05;;;6.47;;
56242;SDS011;42155;53.096;23.226;2023-04-09T08:52:03;9.57;;;5.18;;
56242;SDS011;42155;53.096;23.226;2023-04-09T08:54:03;10.27;;;5.68;;
56242;SDS011;42155;53.096;23.226;2023-04-09T08:56:04;10.18;;;5.32;;
56242;SDS011;42155;53.096;23.226;2023-04-09T08:58:05;11.00;;;5.80;;
56242;SDS011;42155;53.096;23.226;2023-04-09T09:00:05;11.13;;;5.72;;
56242;SDS011;42155;53.096;23.226;2023-04-09T09:02:09;11.68;;;6.13;;
56242;SDS011;42155;53.096;23.226;2023-04-09T09:04:10;8.23;;;5.63;;
56242;SDS011;42155;53.096;23.226;2023-04-09T09:06:19;10.43;;;4.70;;
56242;SDS011;42155;53.096;23.226;2023-04-09T09:08:23;9.23;;;4.10;;
56242;SDS011;42155;53.096;23.226;2023-04-09T09:10:35;7.68;;;3.40;;
56242;SDS011;42155;53.096;23.226;2023-04-09T09:12:39;4.57;;;2.88;;
56242;SDS011;42155;53.096;23.226;2023-04-09T09:14:41;5.97;;;3.03;;
56242;SDS011;42155;53.096;23.226;2023-04-09T09:16:42;6.75;;;2.28;;
56242;SDS011;42155;53.096;23.226;2023-04-09T09:19:02;7.53;;;2.75;;
56242;SDS011;42155;53.096;23.226;2023-04-09T09:21:13;4.95;;;2.38;;
56242;SDS011;42155;53.096;23.226;2023-04-09T09:23:14;7.05;;;2.70;;
56242;SDS011;42155;53.096;23.226;2023-04-09T09:25:14;6.20;;;2.42;;
56242;SDS011;42155;53.096;23.226;2023-04-09T09:29:31;6.07;;;2.50;;
56242;SDS011;42155;53.096;23.226;2023-04-09T09:31:44;6.05;;;2.40;;
56242;SDS011;42155;53.096;23.226;2023-04-09T09:34:06;5.63;;;2.20;;
56242;SDS011;42155;53.096;23.226;2023-04-09T09:36:07;5.45;;;2.40;;
56242;SDS011;42155;53.096;23.226;2023-04-09T09:38:08;4.55;;;1.70;;
56242;SDS011;42155;53.096;23.226;2023-04-09T09:40:08;6.50;;;2.15;;
56242;SDS011;42155;53.096;23.226;2023-04-09T09:42:09;4.95;;;2.05;;
56242;SDS011;42155;53.096;23.226;2023-04-09T09:44:10;5.65;;;1.70;;
56242;SDS011;42155;53.096;23.226;2023-04-09T09:46:11;7.45;;;2.28;;
56242;SDS011;42155;53.096;23.226;2023-04-09T09:48:12;7.10;;;2.22;;
56242;SDS011;42155;53.096;23.226;2023-04-09T09:50:13;6.03;;;2.30;;
56242;SDS011;42155;53.096;23.226;2023-04-09T09:52:13;3.90;;;2.22;;
56242;SDS011;42155;53.096;23.226;2023-04-09T09:54:15;6.03;;;2.25;;
56242;SDS011;42155;53.096;23.226;2023-04-09T09:56:22;4.47;;;2.00;;
56242;SDS011;42155;53.096;23.226;2023-04-09T09:58:26;3.20;;;1.95;;
56242;SDS011;42155;53.096;23.226;2023-04-09T10:00:31;5.80;;;2.47;;
56242;SDS011;42155;53.096;23.226;2023-04-09T10:02:36;5.32;;;2.40;;
56242;SDS011;42155;53.096;23.226;2023-04-09T10:04:52;6.35;;;2.40;;
56242;SDS011;42155;53.096;23.226;2023-04-09T10:06:52;4.15;;;2.08;;
56242;SDS011;42155;53.096;23.226;2023-04-09T10:08:57;5.97;;;2.28;;
56242;SDS011;42155;53.096;23.226;2023-04-09T10:11:18;5.93;;;2.13;;
56242;SDS011;42155;53.096;23.226;2023-04-09T10:13:29;8.27;;;2.53;;
56242;SDS011;42155;53.096;23.226;2023-04-09T10:15:39;4.60;;;2.08;;
56242;SDS011;42155;53.096;23.226;2023-04-09T10:17:41;6.25;;;2.10;;
56242;SDS011;42155;53.096;23.226;2023-04-09T10:19:43;9.18;;;2.45;;
56242;SDS011;42155;53.096;23.226;2023-04-09T10:22:08;4.38;;;2.05;;
56242;SDS011;42155;53.096;23.226;2023-04-09T10:24:10;5.95;;;2.85;;
56242;SDS011;42155;53.096;23.226;2023-04-09T10:26:11;4.20;;;2.75;;
56242;SDS011;42155;53.096;23.226;2023-04-09T10:28:17;6.18;;;3.10;;
56242;SDS011;42155;53.096;23.226;2023-04-09T10:30:33;3.92;;;2.13;;
56242;SDS011;42155;53.096;23.226;2023-04-09T10:32:35;5.10;;;2.33;;
56242;SDS011;42155;53.096;23.226;2023-04-09T10:34:37;5.15;;;2.80;;
56242;SDS011;42155;53.096;23.226;2023-04-09T10:36:41;4.75;;;2.28;;
56242;SDS011;42155;53.096;23.226;2023-04-09T10:38:44;10.02;;;3.20;;
56242;SDS011;42155;53.096;23.226;2023-04-09T10:40:49;14.48;;;7.30;;
56242;SDS011;42155;53.096;23.226;2023-04-09T10:42:49;8.27;;;3.00;;
56242;SDS011;42155;53.096;23.226;2023-04-09T10:45:03;5.05;;;2.40;;
56242;SDS011;42155;53.096;23.226;2023-04-09T10:47:04;8.25;;;2.63;;
56242;SDS011;42155;53.096;23.226;2023-04-09T10:49:08;3.88;;;2.45;;
56242;SDS011;42155;53.096;23.226;2023-04-09T10:51:18;7.72;;;2.70;;
56242;SDS011;42155;53.096;23.226;2023-04-09T10:53:22;6.45;;;2.78;;
56242;SDS011;42155;53.096;23.226;2023-04-09T10:55:40;4.95;;;2.40;;
56242;SDS011;42155;53.096;23.226;2023-04-09T10:57:41;6.70;;;2.78;;
56242;SDS011;42155;53.096;23.226;2023-04-09T11:04:08;5.00;;;2.40;;
56242;SDS011;42155;53.096;23.226;2023-04-09T11:06:18;6.28;;;2.20;;
56242;SDS011;42155;53.096;23.226;2023-04-09T11:08:19;5.18;;;2.00;;
56242;SDS011;42155;53.096;23.226;2023-04-09T11:10:20;5.93;;;2.40;;
56242;SDS011;42155;53.096;23.226;2023-04-09T11:12:20;4.78;;;2.30;;
56242;SDS011;42155;53.096;23.226;2023-04-09T11:14:21;5.55;;;2.22;;
56242;SDS011;42155;53.096;23.226;2023-04-09T11:16:21;4.60;;;2.13;;
56242;SDS011;42155;53.096;23.226;2023-04-09T11:18:23;4.10;;;2.20;;
56242;SDS011;42155;53.096;23.226;2023-04-09T11:20:25;5.63;;;2.67;;
56242;SDS011;42155;53.096;23.226;2023-04-09T11:22:27;4.97;;;2.55;;
56242;SDS011;42155;53.096;23.226;2023-04-09T11:24:38;6.15;;;2.30;;
56242;SDS011;42155;53.096;23.226;2023-04-09T11:26:39;6.55;;;2.78;;
56242;SDS011;42155;53.096;23.226;2023-04-09T11:28:41;6.65;;;2.60;;
56242;SDS011;42155;53.096;23.226;2023-04-09T11:30:42;9.23;;;2.72;;
56242;SDS011;42155;53.096;23.226;2023-04-09T11:32:43;7.45;;;2.47;;
56242;SDS011;42155;53.096;23.226;2023-04-09T11:34:44;4.25;;;2.60;;
56242;SDS011;42155;53.096;23.226;2023-04-09T11:36:47;7.47;;;2.90;;
56242;SDS011;42155;53.096;23.226;2023-04-09T11:38:49;7.22;;;2.92;;
56242;SDS011;42155;53.096;23.226;2023-04-09T11:40:53;6.47;;;2.67;;
56242;SDS011;42155;53.096;23.226;2023-04-09T11:42:56;3.97;;;2.42;;
56242;SDS011;42155;53.096;23.226;2023-04-09T11:44:57;4.72;;;2.55;;
56242;SDS011;42155;53.096;23.226;2023-04-09T11:46:58;6.00;;;2.55;;
56242;SDS011;42155;53.096;23.226;2023-04-09T11:48:59;6.20;;;2.38;;
56242;SDS011;42155;53.096;23.226;2023-04-09T11:50:59;5.47;;;2.80;;
56242;SDS011;42155;53.096;23.226;2023-04-09T11:53:00;6.45;;;2.38;;
56242;SDS011;42155;53.096;23.226;2023-04-09T11:55:26;6.18;;;2.63;;
56242;SDS011;42155;53.096;23.226;2023-04-09T11:57:41;5.05;;;2.50;;
56242;SDS011;42155;53.096;23.226;2023-04-09T11:59:43;8.00;;;2.63;;
56242;SDS011;42155;53.096;23.226;2023-04-09T12:01:47;5.38;;;2.58;;
56242;SDS011;42155;53.096;23.226;2023-04-09T12:03:52;5.30;;;2.50;;
56242;SDS011;42155;53.096;23.226;2023-04-09T12:05:53;7.63;;;3.05;;